Time;durP1;ratioP1;P1;durP2;ratioP2;P2;SDS_P1;SDS_P2;PMS_P1;PMS_P2;Temp;Humidity;BMP_temperature;BMP_pressure;BME280_temperature;BME280_humidity;BME280_pressure;Samples;Min_cycle;Max_cycle;Signal;HPM_P1;HPM_P2
2022/08/21 00:00:30;;;;;;;;;;;20.60;99.90;;;;;;5014133;28;20218;-64
2022/08/21 00:02:59;;;;;;;;;;;20.70;99.90;;;;;;5014795;28;20265;-64
2022/08/21 00:05:27;;;;;;;;;;;20.90;99.90;;;;;;5012535;28;20200;-64
2022/08/21 00:07:56;;;;;;;;;;;20.90;99.90;;;;;;5011954;28;20202;-64
2022/08/21 00:10:24;;;;;;;;;;;20.70;99.90;;;;;;5012098;28;20207;-64
2022/08/21 00:12:52;;;;;;;;;;;20.90;99.90;;;;;;5017534;28;20187;-63
2022/08/21 00:15:22;;;;;;;;;;;20.80;99.90;;;;;;5018505;28;20215;-63
2022/08/21 00:17:50;;;;;;;;;;;20.50;99.90;;;;;;5017082;28;20219;-64
2022/08/21 00:20:18;;;;;;;;;;;20.20;99.90;;;;;;5013937;28;20292;-64
2022/08/21 00:22:46;;;;;;;;;;;20.00;99.90;;;;;;5011453;28;20191;-64
2022/08/21 00:25:15;;;;;;;;;;;20.00;99.90;;;;;;5012684;28;20195;-64
2022/08/21 00:27:46;;;;;;;;;;;20.20;99.90;;;;;;5014976;28;20199;-64
2022/08/21 00:30:15;;;;;;;;;;;20.20;99.90;;;;;;5014947;28;20202;-64
2022/08/21 00:32:50;;;;;;;;;;;20.40;99.90;;;;;;5015378;28;20195;-64
2022/08/21 00:35:19;;;;;;;;;;;20.50;99.90;;;;;;5013176;28;20661;-64
2022/08/21 00:37:47;;;;;;;;;;;20.80;99.90;;;;;;5015595;28;20203;-64
2022/08/21 00:40:18;;;;;;;;;;;21.00;99.90;;;;;;5013684;28;20199;-64
2022/08/21 00:42:46;;;;;;;;;;;21.20;99.90;;;;;;5013448;28;20184;-64
2022/08/21 00:45:20;;;;;;;;;;;21.50;99.90;;;;;;5015079;28;20281;-64
2022/08/21 00:47:48;;;;;;;;;;;21.50;99.90;;;;;;5012569;28;20195;-64
2022/08/21 00:50:16;;;;;;;;;;;21.70;99.90;;;;;;5010456;28;20225;-64
2022/08/21 00:52:50;;;;;;;;;;;21.70;99.90;;;;;;5015690;28;20669;-64
2022/08/21 00:55:20;;;;;;;;;;;21.60;99.90;;;;;;5012688;28;20687;-64
2022/08/21 00:57:51;;;;;;;;;;;21.60;99.90;;;;;;5013885;28;20203;-64
2022/08/21 01:00:21;;;;;;;;;;;21.70;99.90;;;;;;5015744;28;20203;-64
2022/08/21 01:02:48;;;;;;;;;;;21.80;99.90;;;;;;5008581;28;20191;-64
2022/08/21 01:05:17;;;;;;;;;;;22.00;99.90;;;;;;5010839;28;20199;-64
2022/08/21 01:07:44;;;;;;;;;;;22.00;99.90;;;;;;5010250;28;20249;-64
2022/08/21 01:10:14;;;;;;;;;;;22.20;99.90;;;;;;5008341;28;20570;-65
2022/08/21 01:12:54;;;;;;;;;;;22.30;99.90;;;;;;5009321;28;20686;-65
2022/08/21 01:15:23;;;;;;;;;;;22.30;99.90;;;;;;5009065;28;20227;-65
2022/08/21 01:17:51;;;;;;;;;;;22.40;99.90;;;;;;5010193;28;20204;-64
2022/08/21 01:20:19;;;;;;;;;;;22.20;99.90;;;;;;5009998;28;20672;-65
2022/08/21 01:22:48;;;;;;;;;;;22.20;99.90;;;;;;5010941;28;20199;-65
2022/08/21 01:25:19;;;;;;;;;;;22.00;99.90;;;;;;5009817;28;20203;-65
2022/08/21 01:27:47;;;;;;;;;;;21.80;99.90;;;;;;5009185;28;20315;-65
2022/08/21 01:30:16;;;;;;;;;;;21.80;99.90;;;;;;5008100;28;20882;-64
2022/08/21 01:32:45;;;;;;;;;;;21.90;99.90;;;;;;5013562;28;20202;-64
2022/08/21 01:35:13;;;;;;;;;;;21.80;99.90;;;;;;5010104;28;20253;-64
2022/08/21 01:37:41;;;;;;;;;;;21.70;99.90;;;;;;5011750;28;20203;-64
2022/08/21 01:40:11;;;;;;;;;;;21.80;99.90;;;;;;5008461;28;20211;-64
2022/08/21 01:42:39;;;;;;;;;;;21.80;99.90;;;;;;5008817;28;20217;-64
2022/08/21 01:45:08;;;;;;;;;;;21.80;99.90;;;;;;5011789;28;20645;-64
2022/08/21 01:47:36;;;;;;;;;;;21.60;99.90;;;;;;5009216;28;20198;-63
2022/08/21 01:50:04;;;;;;;;;;;21.70;99.90;;;;;;5011023;28;20231;-62
2022/08/21 01:52:32;;;;;;;;;;;21.60;99.90;;;;;;5009582;28;20253;-64
2022/08/21 01:55:00;;;;;;;;;;;21.40;99.90;;;;;;5006641;28;20560;-64
2022/08/21 01:57:29;;;;;;;;;;;21.20;99.90;;;;;;5008767;28;20245;-63
2022/08/21 01:59:57;;;;;;;;;;;21.20;99.90;;;;;;5007257;28;20258;-64
2022/08/21 02:02:24;;;;;;;;;;;21.40;99.90;;;;;;5010295;28;20191;-63
2022/08/21 02:04:52;;;;;;;;;;;21.50;99.90;;;;;;5008292;28;20679;-63
2022/08/21 02:07:21;;;;;;;;;;;21.70;99.90;;;;;;5008306;28;20253;-64
2022/08/21 02:09:49;;;;;;;;;;;21.90;99.90;;;;;;5005802;28;20581;-64
2022/08/21 02:12:17;;;;;;;;;;;21.90;99.90;;;;;;5008001;28;20593;-64
2022/08/21 02:14:46;;;;;;;;;;;21.60;99.90;;;;;;5005740;28;20280;-63
2022/08/21 02:17:14;;;;;;;;;;;21.80;99.90;;;;;;5011670;28;20208;-63
2022/08/21 02:19:42;;;;;;;;;;;21.60;99.90;;;;;;5009574;28;20207;-63
2022/08/21 02:22:10;;;;;;;;;;;21.60;99.90;;;;;;5007811;28;20591;-64
2022/08/21 02:24:38;;;;;;;;;;;21.70;99.90;;;;;;5009285;28;20647;-63
2022/08/21 02:27:21;;;;;;;;;;;21.60;99.90;;;;;;5007887;28;20245;-63
2022/08/21 02:29:55;;;;;;;;;;;21.00;99.90;;;;;;5008807;28;20199;-63
2022/08/21 02:32:23;;;;;;;;;;;20.90;99.90;;;;;;5010180;28;20199;-64
2022/08/21 02:34:52;;;;;;;;;;;20.80;99.90;;;;;;5008220;28;20191;-64
2022/08/21 02:37:19;;;;;;;;;;;20.70;99.90;;;;;;5008340;28;20704;-64
2022/08/21 02:39:47;;;;;;;;;;;20.60;99.90;;;;;;5008663;28;20187;-64
2022/08/21 02:42:15;;;;;;;;;;;20.60;99.90;;;;;;5006443;28;20203;-64
2022/08/21 02:44:43;;;;;;;;;;;20.50;99.90;;;;;;5008837;28;20199;-64
2022/08/21 02:47:12;;;;;;;;;;;20.60;99.90;;;;;;5006275;28;20199;-63
2022/08/21 02:49:40;;;;;;;;;;;20.30;99.90;;;;;;5001624;28;20975;-64
2022/08/21 02:52:08;;;;;;;;;;;19.90;99.90;;;;;;5007525;28;20203;-64
2022/08/21 02:54:36;;;;;;;;;;;19.90;99.90;;;;;;5011829;28;20195;-64
2022/08/21 02:57:04;;;;;;;;;;;19.80;99.90;;;;;;5008253;28;20663;-63
2022/08/21 02:59:32;;;;;;;;;;;19.90;99.90;;;;;;5011874;28;20199;-63
2022/08/21 03:02:00;;;;;;;;;;;19.90;99.90;;;;;;5012849;28;20217;-63
2022/08/21 03:04:29;;;;;;;;;;;19.90;99.90;;;;;;5018110;28;20762;-63
2022/08/21 03:06:57;;;;;;;;;;;19.80;99.90;;;;;;5006468;28;20203;-63
2022/08/21 03:09:25;;;;;;;;;;;20.10;99.90;;;;;;5007440;28;20628;-64
2022/08/21 03:11:53;;;;;;;;;;;20.50;99.90;;;;;;5009121;28;20199;-64
2022/08/21 03:14:21;;;;;;;;;;;20.80;99.90;;;;;;5007191;28;20139;-64
2022/08/21 03:16:49;;;;;;;;;;;20.70;99.90;;;;;;5008198;28;20068;-64
2022/08/21 03:19:17;;;;;;;;;;;21.00;99.90;;;;;;5008763;28;20221;-63
2022/08/21 03:21:46;;;;;;;;;;;21.30;99.90;;;;;;5005899;28;20187;-63
2022/08/21 03:24:14;;;;;;;;;;;21.50;99.90;;;;;;5008285;28;20246;-64
2022/08/21 03:26:45;;;;;;;;;;;21.60;99.90;;;;;;5006697;28;20195;-64
2022/08/21 03:29:13;;;;;;;;;;;21.50;99.90;;;;;;5007809;28;20291;-64
2022/08/21 03:31:41;;;;;;;;;;;21.60;99.90;;;;;;5008844;28;20199;-63
2022/08/21 03:34:10;;;;;;;;;;;21.40;99.90;;;;;;5006518;28;20191;-64
2022/08/21 03:36:38;;;;;;;;;;;21.20;99.90;;;;;;5006424;28;20203;-64
2022/08/21 03:39:07;;;;;;;;;;;21.20;99.90;;;;;;5007867;28;20641;-63
2022/08/21 03:41:35;;;;;;;;;;;20.80;99.90;;;;;;5007606;28;20195;-63
2022/08/21 03:44:02;;;;;;;;;;;20.90;99.90;;;;;;5004989;28;20201;-64
2022/08/21 03:46:30;;;;;;;;;;;21.10;99.90;;;;;;5006026;28;20200;-63
2022/08/21 03:48:58;;;;;;;;;;;21.10;99.90;;;;;;5009676;28;20195;-63
2022/08/21 03:51:26;;;;;;;;;;;21.10;99.90;;;;;;5006776;28;20195;-63
2022/08/21 03:53:54;;;;;;;;;;;21.20;99.90;;;;;;5007879;28;20199;-63
2022/08/21 03:56:23;;;;;;;;;;;21.30;99.90;;;;;;5008441;28;20210;-64
2022/08/21 03:58:51;;;;;;;;;;;21.10;99.90;;;;;;5006749;28;20221;-63
2022/08/21 04:01:19;;;;;;;;;;;21.10;99.90;;;;;;5010939;28;20689;-63
2022/08/21 04:03:47;;;;;;;;;;;21.20;99.90;;;;;;5012070;28;20215;-64
2022/08/21 04:06:15;;;;;;;;;;;21.20;99.90;;;;;;5004037;28;20207;-63
2022/08/21 04:08:43;;;;;;;;;;;21.40;99.90;;;;;;5007157;28;20208;-63
2022/08/21 04:11:11;;;;;;;;;;;21.20;99.90;;;;;;5007046;28;20097;-63
2022/08/21 04:13:40;;;;;;;;;;;20.80;99.90;;;;;;5006683;28;20193;-63
2022/08/21 04:16:11;;;;;;;;;;;20.60;99.90;;;;;;5007672;28;20182;-63
2022/08/21 04:18:39;;;;;;;;;;;20.80;99.90;;;;;;5009324;28;20232;-63
2022/08/21 04:21:09;;;;;;;;;;;20.80;99.90;;;;;;5056636;23;20209;-63
2022/08/21 04:23:37;;;;;;;;;;;20.70;99.90;;;;;;5037604;28;20206;-63
2022/08/21 04:26:06;;;;;;;;;;;20.70;99.90;;;;;;5041764;28;20420;-65
2022/08/21 04:28:34;;;;;;;;;;;20.80;99.90;;;;;;5047085;28;20211;-63
2022/08/21 04:31:03;;;;;;;;;;;20.80;99.90;;;;;;5032983;28;20116;-63
2022/08/21 04:33:31;;;;;;;;;;;20.80;99.90;;;;;;5029432;28;21401;-66
2022/08/21 04:35:58;;;;;;;;;;;20.80;99.90;;;;;;5025929;28;20088;-65
2022/08/21 04:38:27;;;;;;;;;;;21.00;99.90;;;;;;5030092;28;20087;-66
2022/08/21 04:41:04;;;;;;;;;;;21.60;99.90;;;;;;5031353;28;20221;-65
2022/08/21 04:43:32;;;;;;;;;;;21.40;99.90;;;;;;5031060;28;20214;-65
2022/08/21 04:46:00;;;;;;;;;;;21.20;99.90;;;;;;5031353;28;20230;-65
2022/08/21 04:48:29;;;;;;;;;;;21.10;99.90;;;;;;5030881;28;20244;-65
2022/08/21 04:50:58;;;;;;;;;;;20.80;99.90;;;;;;5026758;28;20192;-65
2022/08/21 04:53:29;;;;;;;;;;;20.90;99.90;;;;;;5027566;28;20198;-65
2022/08/21 04:55:58;;;;;;;;;;;20.80;99.90;;;;;;5028172;28;20198;-65
2022/08/21 04:58:26;;;;;;;;;;;21.10;99.90;;;;;;5028706;28;20294;-65
2022/08/21 05:00:55;;;;;;;;;;;21.00;99.90;;;;;;5023712;28;20203;-65
2022/08/21 05:03:23;;;;;;;;;;;20.90;99.90;;;;;;5027416;28;20201;-63
2022/08/21 05:05:52;;;;;;;;;;;21.40;99.90;;;;;;5028617;28;20235;-63
2022/08/21 05:08:22;;;;;;;;;;;21.30;99.90;;;;;;5029808;28;20223;-63
2022/08/21 05:10:50;;;;;;;;;;;21.20;99.90;;;;;;5031897;28;20675;-63
2022/08/21 05:13:18;;;;;;;;;;;21.30;99.90;;;;;;5030133;28;20211;-63
2022/08/21 05:15:46;;;;;;;;;;;21.40;99.90;;;;;;5032479;28;20237;-62
2022/08/21 05:18:14;;;;;;;;;;;21.60;99.90;;;;;;5029243;28;20213;-63
2022/08/21 05:20:44;;;;;;;;;;;21.50;99.90;;;;;;5029896;28;20207;-62
2022/08/21 05:23:14;;;;;;;;;;;21.50;99.90;;;;;;5030727;28;20663;-62
2022/08/21 05:25:43;;;;;;;;;;;21.20;99.90;;;;;;5029790;28;20689;-63
2022/08/21 05:28:12;;;;;;;;;;;21.10;99.90;;;;;;5029793;28;20203;-62
2022/08/21 05:30:40;;;;;;;;;;;21.00;99.90;;;;;;5030747;28;20198;-62
2022/08/21 05:33:08;;;;;;;;;;;20.80;99.90;;;;;;5031306;28;20206;-63
2022/08/21 05:35:36;;;;;;;;;;;20.70;99.90;;;;;;5028325;28;20202;-62
2022/08/21 05:38:04;;;;;;;;;;;21.10;99.90;;;;;;5027741;28;20244;-62
2022/08/21 05:40:33;;;;;;;;;;;21.40;99.90;;;;;;5030627;28;20208;-63
2022/08/21 05:43:01;;;;;;;;;;;21.20;99.90;;;;;;5031366;28;20198;-65
2022/08/21 05:45:30;;;;;;;;;;;21.10;99.90;;;;;;5033734;28;20196;-63
2022/08/21 05:48:11;;;;;;;;;;;20.80;99.90;;;;;;5028864;28;20667;-62
2022/08/21 05:50:39;;;;;;;;;;;20.80;99.90;;;;;;5026431;28;20208;-63
2022/08/21 05:53:07;;;;;;;;;;;21.00;99.90;;;;;;5021762;28;20816;-63
2022/08/21 05:55:37;;;;;;;;;;;21.20;99.90;;;;;;5035269;28;20191;-62
2022/08/21 05:58:12;;;;;;;;;;;21.40;99.90;;;;;;5028456;28;20198;-63
2022/08/21 06:00:40;;;;;;;;;;;21.40;99.90;;;;;;5019906;28;21050;-62
2022/08/21 06:03:11;;;;;;;;;;;21.60;99.90;;;;;;5017485;28;20328;-62
2022/08/21 06:05:38;;;;;;;;;;;21.70;99.90;;;;;;5014924;28;20518;-62
2022/08/21 06:08:06;;;;;;;;;;;21.80;99.90;;;;;;5020317;28;20211;-62
2022/08/21 06:10:34;;;;;;;;;;;21.80;99.90;;;;;;5016163;28;20207;-63
2022/08/21 06:13:04;;;;;;;;;;;21.90;99.90;;;;;;5018172;28;20209;-62
2022/08/21 06:15:32;;;;;;;;;;;21.70;99.90;;;;;;5019361;28;20201;-63
2022/08/21 06:17:59;;;;;;;;;;;21.20;99.90;;;;;;5017877;28;20211;-63
2022/08/21 06:20:27;;;;;;;;;;;21.10;99.90;;;;;;5017529;28;20207;-64
2022/08/21 06:22:55;;;;;;;;;;;21.00;99.90;;;;;;5016827;28;20218;-63
2022/08/21 06:25:23;;;;;;;;;;;21.20;99.90;;;;;;5015489;28;20207;-65
2022/08/21 06:27:51;;;;;;;;;;;21.30;99.90;;;;;;5017770;28;20199;-64
2022/08/21 06:30:20;;;;;;;;;;;21.40;99.90;;;;;;5019446;28;20207;-63
2022/08/21 06:32:48;;;;;;;;;;;21.40;99.90;;;;;;5015937;28;20680;-64
2022/08/21 06:35:16;;;;;;;;;;;21.30;99.90;;;;;;5018243;28;20260;-63
2022/08/21 06:37:44;;;;;;;;;;;21.20;99.90;;;;;;5017289;28;20638;-63
2022/08/21 06:40:12;;;;;;;;;;;21.40;99.90;;;;;;5016628;28;20846;-62
2022/08/21 06:42:41;;;;;;;;;;;21.20;99.90;;;;;;5016238;28;20217;-64
2022/08/21 06:45:10;;;;;;;;;;;21.20;99.90;;;;;;5016833;28;20230;-63
2022/08/21 06:47:39;;;;;;;;;;;21.30;99.90;;;;;;5017906;28;20195;-62
2022/08/21 06:50:08;;;;;;;;;;;21.30;99.90;;;;;;5016640;28;20256;-63
2022/08/21 06:52:36;;;;;;;;;;;21.20;99.90;;;;;;5017896;28;20206;-64
2022/08/21 06:55:06;;;;;;;;;;;21.00;99.90;;;;;;5016964;28;20217;-65
2022/08/21 06:57:33;;;;;;;;;;;21.00;99.90;;;;;;5017187;28;20203;-63
2022/08/21 07:00:01;;;;;;;;;;;21.10;99.90;;;;;;5021159;28;20203;-63
2022/08/21 07:02:29;;;;;;;;;;;21.10;99.90;;;;;;5022269;28;20210;-65
2022/08/21 07:04:58;;;;;;;;;;;21.20;99.90;;;;;;5018375;28;20206;-63
2022/08/21 07:07:26;;;;;;;;;;;21.20;99.90;;;;;;5018574;28;20195;-62
2022/08/21 07:09:54;;;;;;;;;;;21.20;99.90;;;;;;5017043;28;20556;-62
2022/08/21 07:12:22;;;;;;;;;;;21.10;99.90;;;;;;5018577;28;20821;-64
2022/08/21 07:14:49;;;;;;;;;;;21.00;99.90;;;;;;5015369;28;20218;-62
2022/08/21 07:17:17;;;;;;;;;;;21.10;99.90;;;;;;5018373;28;20206;-65
2022/08/21 07:19:45;;;;;;;;;;;21.10;99.90;;;;;;5016558;28;20233;-64
2022/08/21 07:22:17;;;;;;;;;;;21.10;99.90;;;;;;5017239;28;20773;-63
2022/08/21 07:24:44;;;;;;;;;;;21.20;99.90;;;;;;5018426;28;20199;-63
2022/08/21 07:27:12;;;;;;;;;;;21.20;99.90;;;;;;5017291;28;20233;-62
2022/08/21 07:29:42;;;;;;;;;;;21.20;99.90;;;;;;5016543;28;20297;-62
2022/08/21 07:32:10;;;;;;;;;;;21.40;99.90;;;;;;5015851;28;20214;-63
2022/08/21 07:34:38;;;;;;;;;;;21.60;99.90;;;;;;5013446;28;20675;-63
2022/08/21 07:37:05;;;;;;;;;;;21.90;99.90;;;;;;5017723;28;20202;-62
2022/08/21 07:39:38;;;;;;;;;;;22.10;99.90;;;;;;5016969;28;20336;-62
2022/08/21 07:42:06;;;;;;;;;;;22.20;99.90;;;;;;5015494;28;20198;-62
2022/08/21 07:44:35;;;;;;;;;;;22.50;99.90;;;;;;5015372;28;20195;-62
2022/08/21 07:47:03;;;;;;;;;;;22.50;99.90;;;;;;5017219;28;20203;-62
2022/08/21 07:49:30;;;;;;;;;;;22.70;99.90;;;;;;5019499;28;20641;-64
2022/08/21 07:51:58;;;;;;;;;;;22.90;99.90;;;;;;5016740;28;20234;-63
2022/08/21 07:54:26;;;;;;;;;;;23.00;99.90;;;;;;5016412;28;20671;-64
2022/08/21 07:57:02;;;;;;;;;;;23.20;99.90;;;;;;5016070;28;20293;-64
2022/08/21 07:59:30;;;;;;;;;;;23.50;99.90;;;;;;5015805;28;20205;-65
2022/08/21 08:01:58;;;;;;;;;;;23.60;99.90;;;;;;5014493;28;20198;-64
2022/08/21 08:04:26;;;;;;;;;;;23.80;99.90;;;;;;5018874;28;20194;-64
2022/08/21 08:06:53;;;;;;;;;;;23.90;99.90;;;;;;5020245;28;20199;-63
2022/08/21 08:09:21;;;;;;;;;;;23.80;99.90;;;;;;5022523;28;20211;-62
2022/08/21 08:11:49;;;;;;;;;;;23.90;99.90;;;;;;5024114;28;20187;-64
2022/08/21 08:14:18;;;;;;;;;;;24.20;99.90;;;;;;5020051;28;20203;-66
2022/08/21 08:16:53;;;;;;;;;;;24.40;99.90;;;;;;5018926;28;20567;-63
2022/08/21 08:19:20;;;;;;;;;;;24.70;99.90;;;;;;5022565;28;20261;-64
2022/08/21 08:21:49;;;;;;;;;;;24.70;99.90;;;;;;5018723;28;20199;-66
2022/08/21 08:24:17;;;;;;;;;;;25.10;99.90;;;;;;5018478;28;20673;-65
2022/08/21 08:26:46;;;;;;;;;;;25.10;99.90;;;;;;5020661;28;20211;-64
2022/08/21 08:29:22;;;;;;;;;;;25.10;99.90;;;;;;5023395;28;20213;-66
2022/08/21 08:31:50;;;;;;;;;;;25.10;99.90;;;;;;5018470;28;20211;-66
2022/08/21 08:34:19;;;;;;;;;;;25.20;99.90;;;;;;5024278;28;20237;-66
2022/08/21 08:36:52;;;;;;;;;;;25.30;99.90;;;;;;5026085;28;20203;-65
2022/08/21 08:39:20;;;;;;;;;;;25.60;99.90;;;;;;5025612;28;20989;-65
2022/08/21 08:41:57;;;;;;;;;;;25.60;99.90;;;;;;5025880;28;20207;-66
2022/08/21 08:44:26;;;;;;;;;;;25.60;99.90;;;;;;5024276;28;20210;-66
2022/08/21 08:46:57;;;;;;;;;;;26.00;99.90;;;;;;5027475;28;20203;-66
2022/08/21 08:49:31;;;;;;;;;;;26.20;99.90;;;;;;5033785;28;20253;-66
2022/08/21 08:52:01;;;;;;;;;;;26.50;99.90;;;;;;5034547;28;20213;-66
2022/08/21 08:54:31;;;;;;;;;;;26.50;99.90;;;;;;5035267;28;20199;-66
2022/08/21 08:56:59;;;;;;;;;;;26.60;99.90;;;;;;5034834;28;20583;-66
2022/08/21 08:59:33;;;;;;;;;;;26.60;99.50;;;;;;5033493;28;20202;-66
2022/08/21 09:02:01;;;;;;;;;;;26.60;98.90;;;;;;5035156;28;20195;-66
2022/08/21 09:04:29;;;;;;;;;;;26.60;98.50;;;;;;5034483;28;20218;-66
2022/08/21 09:07:02;;;;;;;;;;;26.80;98.00;;;;;;5034523;28;20210;-64
2022/08/21 09:09:34;;;;;;;;;;;27.00;98.30;;;;;;5033115;28;20230;-64
2022/08/21 09:12:04;;;;;;;;;;;27.10;98.40;;;;;;5034869;28;20206;-64
2022/08/21 09:14:51;;;;;;;;;;;27.30;98.30;;;;;;5034633;28;20209;-64
2022/08/21 09:17:23;;;;;;;;;;;27.80;97.80;;;;;;5034590;28;20195;-64
2022/08/21 09:19:58;;;;;;;;;;;28.00;96.00;;;;;;5034132;28;20207;-64
2022/08/21 09:22:30;;;;;;;;;;;28.20;96.40;;;;;;5033901;28;20191;-65
2022/08/21 09:25:03;;;;;;;;;;;28.40;94.90;;;;;;5034334;28;20253;-64
2022/08/21 09:27:32;;;;;;;;;;;28.20;95.50;;;;;;5034430;28;20195;-65
2022/08/21 09:30:01;;;;;;;;;;;28.60;95.10;;;;;;5034037;28;20268;-64
2022/08/21 09:32:31;;;;;;;;;;;28.70;95.10;;;;;;5034622;28;20213;-64
2022/08/21 09:35:06;;;;;;;;;;;29.10;94.60;;;;;;5034226;28;20217;-64
2022/08/21 09:37:36;;;;;;;;;;;28.70;94.40;;;;;;5033634;28;20568;-64
2022/08/21 09:40:16;;;;;;;;;;;28.50;94.60;;;;;;5033507;28;20241;-64
2022/08/21 09:42:54;;;;;;;;;;;28.40;94.20;;;;;;5033819;28;20214;-65
2022/08/21 09:45:24;;;;;;;;;;;28.20;94.20;;;;;;5034123;28;20193;-64
2022/08/21 09:47:52;;;;;;;;;;;28.20;94.20;;;;;;5034063;28;20202;-64
2022/08/21 09:50:21;;;;;;;;;;;28.60;94.40;;;;;;5034151;28;20278;-64
2022/08/21 09:52:50;;;;;;;;;;;28.80;93.30;;;;;;5033400;28;20195;-64
2022/08/21 09:58:10;;;;;;;;;;;29.50;93.30;;;;;;5035075;28;20226;-64
2022/08/21 10:00:40;;;;;;;;;;;30.00;92.20;;;;;;5033571;28;20217;-64
2022/08/21 10:03:18;;;;;;;;;;;30.20;91.50;;;;;;5033383;28;20234;-65
2022/08/21 10:05:57;;;;;;;;;;;30.50;90.90;;;;;;5033423;28;20199;-65
2022/08/21 10:08:27;;;;;;;;;;;30.30;90.50;;;;;;5033234;28;20203;-64
2022/08/21 10:10:56;;;;;;;;;;;30.50;90.20;;;;;;5033111;28;20203;-64
2022/08/21 10:13:33;;;;;;;;;;;30.70;89.40;;;;;;5033030;28;20199;-65
2022/08/21 10:16:11;;;;;;;;;;;30.60;89.40;;;;;;5033422;28;20207;-64
2022/08/21 10:18:41;;;;;;;;;;;30.80;89.00;;;;;;5033448;28;20186;-64
2022/08/21 10:21:12;;;;;;;;;;;31.20;89.70;;;;;;5034142;28;20211;-65
2022/08/21 10:23:46;;;;;;;;;;;31.40;87.60;;;;;;5033295;28;20194;-64
2022/08/21 10:26:21;;;;;;;;;;;31.30;86.50;;;;;;5032834;28;20676;-66
2022/08/21 10:28:57;;;;;;;;;;;31.00;86.70;;;;;;5033231;28;20676;-67
2022/08/21 10:31:31;;;;;;;;;;;31.00;87.00;;;;;;5032988;28;20202;-66
2022/08/21 10:34:05;;;;;;;;;;;31.00;84.70;;;;;;5032737;28;20202;-66
2022/08/21 10:36:35;;;;;;;;;;;30.50;85.40;;;;;;5032450;28;20206;-68
2022/08/21 10:39:07;;;;;;;;;;;30.30;86.00;;;;;;5032961;28;20229;-66
2022/08/21 10:42:02;;;;;;;;;;;30.30;85.60;;;;;;5035347;28;20199;-64
2022/08/21 10:44:32;;;;;;;;;;;30.00;86.20;;;;;;5033007;28;20256;-64
2022/08/21 10:47:05;;;;;;;;;;;30.00;87.20;;;;;;5032705;28;20194;-64
2022/08/21 10:49:39;;;;;;;;;;;29.60;85.10;;;;;;5012869;28;20225;-64
2022/08/21 10:52:16;;;;;;;;;;;29.70;84.80;;;;;;5013110;28;20253;-65
2022/08/21 10:54:50;;;;;;;;;;;30.10;84.70;;;;;;5021608;28;20240;-65
2022/08/21 10:57:23;;;;;;;;;;;30.70;84.70;;;;;;5032592;28;20697;-64
2022/08/21 11:00:02;;;;;;;;;;;31.10;83.90;;;;;;5032692;28;20273;-64
2022/08/21 11:02:34;;;;;;;;;;;31.40;83.00;;;;;;5032740;28;20311;-64
2022/08/21 11:05:06;;;;;;;;;;;31.20;82.40;;;;;;5032151;28;20202;-67
2022/08/21 11:07:36;;;;;;;;;;;31.10;81.70;;;;;;5032314;28;20749;-65
2022/08/21 11:10:06;;;;;;;;;;;31.30;81.90;;;;;;5032156;28;20205;-65
2022/08/21 11:12:40;;;;;;;;;;;31.00;82.80;;;;;;5032719;28;20221;-64
2022/08/21 11:15:15;;;;;;;;;;;30.10;82.00;;;;;;5032486;28;20649;-65
2022/08/21 11:18:02;;;;;;;;;;;29.20;84.40;;;;;;5012543;28;20199;-65
2022/08/21 11:20:33;;;;;;;;;;;29.60;84.20;;;;;;5012417;28;20269;-64
2022/08/21 11:23:04;;;;;;;;;;;29.90;83.10;;;;;;5021666;28;20236;-65
2022/08/21 11:25:35;;;;;;;;;;;30.40;83.70;;;;;;5032299;28;20230;-68
2022/08/21 11:28:07;;;;;;;;;;;31.00;83.70;;;;;;5032203;28;20257;-65
2022/08/21 11:30:46;;;;;;;;;;;31.50;82.90;;;;;;5031724;28;20217;-65
2022/08/21 11:33:21;;;;;;;;;;;31.70;80.50;;;;;;5032392;28;20202;-65
2022/08/21 11:35:52;;;;;;;;;;;32.20;80.00;;;;;;5032151;28;20211;-64
2022/08/21 11:38:24;;;;;;;;;;;32.60;78.50;;;;;;5031955;28;20191;-65
2022/08/21 11:41:02;;;;;;;;;;;32.60;78.50;;;;;;5031844;28;20822;-65
2022/08/21 11:43:35;;;;;;;;;;;32.80;77.90;;;;;;5032180;28;20221;-65
2022/08/21 11:46:09;;;;;;;;;;;33.30;77.80;;;;;;5031544;28;20662;-65
2022/08/21 11:48:45;;;;;;;;;;;33.60;77.20;;;;;;5031839;28;20195;-65
2022/08/21 11:51:14;;;;;;;;;;;33.90;76.00;;;;;;5031446;28;20194;-65
2022/08/21 11:53:50;;;;;;;;;;;34.00;75.20;;;;;;5031946;28;20221;-65
2022/08/21 11:56:24;;;;;;;;;;;34.30;74.50;;;;;;5031753;28;20208;-65
2022/08/21 11:58:54;;;;;;;;;;;34.40;72.40;;;;;;5031478;28;20622;-65
2022/08/21 12:01:28;;;;;;;;;;;34.30;72.90;;;;;;5031404;28;20239;-65
2022/08/21 12:04:00;;;;;;;;;;;34.50;72.20;;;;;;5031557;28;20183;-65
2022/08/21 12:06:30;;;;;;;;;;;34.80;70.60;;;;;;5031874;28;20528;-65
2022/08/21 12:09:00;;;;;;;;;;;35.20;71.20;;;;;;5031743;28;20196;-65
2022/08/21 12:11:28;;;;;;;;;;;35.20;70.20;;;;;;5031523;28;20190;-65
2022/08/21 12:13:58;;;;;;;;;;;35.40;70.00;;;;;;5031233;28;20173;-65
2022/08/21 12:16:31;;;;;;;;;;;35.60;69.00;;;;;;5031497;28;20180;-65
2022/08/21 12:19:07;;;;;;;;;;;35.10;67.90;;;;;;5031607;28;20173;-65
2022/08/21 12:21:48;;;;;;;;;;;34.80;68.80;;;;;;5029710;28;20255;-65
2022/08/21 12:24:21;;;;;;;;;;;34.70;68.50;;;;;;5031726;28;20178;-65
2022/08/21 12:26:50;;;;;;;;;;;34.50;69.40;;;;;;5031054;28;20166;-65
2022/08/21 12:29:22;;;;;;;;;;;34.60;69.90;;;;;;5030693;28;20189;-65
2022/08/21 12:31:52;;;;;;;;;;;35.10;69.70;;;;;;5031159;28;20244;-65
2022/08/21 12:34:22;;;;;;;;;;;35.00;67.80;;;;;;5031283;28;20633;-65
2022/08/21 12:36:58;;;;;;;;;;;34.60;68.10;;;;;;5031297;28;20204;-65
2022/08/21 12:39:28;;;;;;;;;;;34.50;67.50;;;;;;5030232;28;20170;-65
2022/08/21 12:41:58;;;;;;;;;;;34.50;68.30;;;;;;5031372;28;20180;-65
2022/08/21 12:44:32;;;;;;;;;;;34.30;67.20;;;;;;5031588;28;20170;-64
2022/08/21 12:47:03;;;;;;;;;;;34.30;68.30;;;;;;5030747;28;20176;-64
2022/08/21 12:49:33;;;;;;;;;;;34.20;67.00;;;;;;5031246;28;20186;-64
2022/08/21 12:52:03;;;;;;;;;;;33.90;67.80;;;;;;5031366;28;20174;-65
2022/08/21 12:54:31;;;;;;;;;;;34.40;67.60;;;;;;5031426;28;20170;-65
2022/08/21 12:57:00;;;;;;;;;;;35.10;67.00;;;;;;5031123;28;20189;-65
2022/08/21 12:59:29;;;;;;;;;;;34.80;66.60;;;;;;5034185;28;20173;-65
2022/08/21 13:01:58;;;;;;;;;;;34.80;66.40;;;;;;5034241;28;20184;-64
2022/08/21 13:04:30;;;;;;;;;;;34.80;66.10;;;;;;5034560;28;20188;-65
2022/08/21 13:06:59;;;;;;;;;;;34.70;66.80;;;;;;5034590;28;20530;-65
2022/08/21 13:09:28;;;;;;;;;;;34.60;67.10;;;;;;5034849;28;20555;-64
2022/08/21 13:11:57;;;;;;;;;;;34.60;66.10;;;;;;5034548;28;20228;-65
2022/08/21 13:14:28;;;;;;;;;;;34.60;66.10;;;;;;5034255;28;20193;-64
2022/08/21 13:16:58;;;;;;;;;;;34.20;66.00;;;;;;5034410;28;20169;-65
2022/08/21 13:19:26;;;;;;;;;;;33.80;66.60;;;;;;5034163;28;20545;-64
2022/08/21 13:21:54;;;;;;;;;;;33.30;66.60;;;;;;5034616;28;20603;-65
2022/08/21 13:24:24;;;;;;;;;;;33.00;67.80;;;;;;5034564;28;20169;-65
2022/08/21 13:27:20;;;;;;;;;;;32.50;68.20;;;;;;5033737;28;20198;-66
2022/08/21 13:29:48;;;;;;;;;;;32.70;68.00;;;;;;5033831;28;20202;-64
2022/08/21 13:32:23;;;;;;;;;;;33.20;66.50;;;;;;5034439;28;20544;-65
2022/08/21 13:34:52;;;;;;;;;;;33.50;67.80;;;;;;5034381;28;20166;-64
2022/08/21 13:37:22;;;;;;;;;;;33.70;67.00;;;;;;5034026;28;20177;-65
2022/08/21 13:39:53;;;;;;;;;;;33.20;66.40;;;;;;5033953;28;20662;-65
2022/08/21 13:42:23;;;;;;;;;;;33.00;67.40;;;;;;5033926;28;20170;-65
2022/08/21 13:44:52;;;;;;;;;;;33.20;67.40;;;;;;5033668;28;20573;-64
2022/08/21 13:47:20;;;;;;;;;;;33.20;67.20;;;;;;5026443;28;20190;-64
2022/08/21 13:49:49;;;;;;;;;;;33.60;66.80;;;;;;5023426;28;21016;-64
2022/08/21 13:52:19;;;;;;;;;;;33.50;66.40;;;;;;5024180;28;20233;-64
2022/08/21 13:54:55;;;;;;;;;;;33.90;66.40;;;;;;5023616;28;20608;-64
2022/08/21 13:57:26;;;;;;;;;;;34.10;65.90;;;;;;5024439;28;20182;-64
2022/08/21 14:00:09;;;;;;;;;;;34.20;65.30;;;;;;5023218;28;20198;-64
2022/08/21 14:02:39;;;;;;;;;;;34.10;64.80;;;;;;5023783;28;20196;-67
2022/08/21 14:05:07;;;;;;;;;;;34.20;65.70;;;;;;5022986;28;20181;-64
2022/08/21 14:07:36;;;;;;;;;;;34.80;64.30;;;;;;5023934;28;20180;-66
2022/08/21 14:10:07;;;;;;;;;;;34.70;63.90;;;;;;5023947;28;21511;-64
2022/08/21 14:12:38;;;;;;;;;;;34.30;65.50;;;;;;5024025;28;20165;-67
2022/08/21 14:15:07;;;;;;;;;;;33.30;64.40;;;;;;5023861;28;20185;-64
2022/08/21 14:17:36;;;;;;;;;;;32.70;66.40;;;;;;5023406;28;20186;-63
2022/08/21 14:20:06;;;;;;;;;;;32.20;66.40;;;;;;5023571;28;20226;-67
2022/08/21 14:22:37;;;;;;;;;;;31.70;66.70;;;;;;5023820;28;20174;-64
2022/08/21 14:25:09;;;;;;;;;;;31.60;67.50;;;;;;5023968;28;20218;-67
2022/08/21 14:27:38;;;;;;;;;;;31.40;67.00;;;;;;5024055;28;20217;-64
2022/08/21 14:30:11;;;;;;;;;;;31.20;67.00;;;;;;5022465;28;20206;-64
2022/08/21 14:32:41;;;;;;;;;;;31.00;67.80;;;;;;5017255;28;20675;-67
2022/08/21 14:35:13;;;;;;;;;;;31.30;67.40;;;;;;5016573;28;20194;-65